PST,Max TemperatureF,Mean TemperatureF,Min TemperatureF,Max Dew PointF,MeanDew PointF,Min DewpointF,Max Humidity, Mean Humidity, Min Humidity, Max Sea Level PressureIn, Mean Sea Level PressureIn, Min Sea Level PressureIn, Max VisibilityMiles, Mean VisibilityMiles, Min VisibilityMiles, Max Wind SpeedMPH, Mean Wind SpeedMPH, Max Gust SpeedMPH,PrecipitationIn, CloudCover, Events, WindDirDegrees
2014-1-1,55,45,34,48,41,34,100,92,77,30.31,30.26,30.20,10,9,0,8,2,,0.00,0,,124
2014-1-2,54,47,39,46,42,37,100,90,71,30.22,30.18,30.13,10,9,0,10,4,,0.00,1,,147
2014-1-3,50,44,37,46,43,36,100,96,86,30.27,30.21,30.16,10,8,0,16,8,21,0.00,5,,24
2014-1-4,55,43,30,37,32,27,100,69,35,30.30,30.25,30.19,10,10,10,20,8,24,0.00,0,,84
2014-1-5,64,51,37,34,29,23,70,48,25,30.27,30.22,30.15,10,10,10,20,10,24,0.00,0,,122
2014-1-6,48,43,37,45,40,34,100,86,70,30.27,30.20,30.12,10,10,9,10,6,,0.00,4,,147
2014-1-7,52,49,46,52,47,43,100,93,86,30.14,30.10,30.08,10,9,3,14,6,20,0.22,8,,164
2014-1-8,54,51,48,54,51,46,100,98,93,30.19,30.07,30.00,10,8,2,17,11,29,0.31,8,Rain,211
2014-1-9,52,49,45,52,48,45,100,97,93,30.23,30.17,30.09,10,8,2,20,10,25,0.15,8,,193
2014-1-10,55,53,50,52,51,48,100,95,86,30.26,30.15,29.91,10,10,2,13,5,17,0.00,8,,182
2014-1-11,55,49,43,54,48,41,100,88,71,30.24,29.97,29.82,10,8,3,27,17,44,0.79,7,Thunderstorm,225
2014-1-12,52,49,46,52,49,45,100,97,93,30.59,30.42,30.25,10,5,2,12,7,21,0.17,8,,223
2014-1-13,55,48,41,50,46,41,100,92,66,30.68,30.62,30.58,10,8,0,13,4,,0.01,3,,31
2014-1-14,61,49,36,48,42,36,100,91,67,30.58,30.54,30.48,10,7,0,6,2,,0.00,1,,124
2014-1-15,63,49,34,48,41,34,100,87,55,30.47,30.41,30.34,10,9,1,7,3,,0.00,0,,79
2014-1-16,63,50,37,45,38,34,86,72,48,30.34,30.26,30.15,10,10,10,10,5,,0.00,0,,128
2014-1-17,64,51,37,46,39,34,100,76,39,30.22,30.15,30.12,10,8,0,10,5,,0.00,1,,167
2014-1-18,50,45,39,46,43,39,100,96,80,30.27,30.21,30.15,10,8,0,13,5,,0.00,4,,59
2014-1-19,54,45,36,48,41,36,100,96,71,30.21,30.16,30.12,10,6,0,13,3,,0.00,4,,120
2014-1-20,63,51,39,46,41,37,100,82,51,30.26,30.18,30.13,10,10,3,9,5,,0.00,0,,140
2014-1-21,48,43,37,46,43,37,100,96,86,30.37,30.32,30.23,10,8,0,13,5,,0.00,6,,151
2014-1-22,54,47,39,48,44,39,100,92,83,30.37,30.30,30.22,10,10,8,21,6,23,0.00,2,,35
2014-1-23,63,50,36,43,38,30,100,67,39,30.22,30.13,30.06,10,10,1,14,8,23,0.00,0,,79
2014-1-24,73,55,37,46,37,30,93,55,23,30.30,30.18,30.13,10,10,10,14,7,16,0.00,0,,108
2014-1-25,59,48,37,46,41,37,100,85,55,30.32,30.27,30.20,10,10,5,8,3,,0.00,0,,155
2014-1-26,55,46,36,48,42,37,100,93,71,30.21,30.13,30.06,10,9,1,8,4,,0.00,2,,171
2014-1-27,52,46,39,48,44,39,100,97,86,30.19,30.15,30.10,10,8,0,8,3,,0.01,6,,136
2014-1-28,57,53,48,57,52,48,100,98,89,30.20,30.14,30.05,10,8,1,14,5,18,0.37,8,,168
2014-1-29,55,51,46,55,50,46,100,97,89,30.08,30.05,30.02,10,7,1,16,9,23,0.49,8,,215
2014-1-30,52,45,37,46,43,37,100,91,71,30.10,30.05,30.03,10,10,5,10,5,16,0.01,5,,107
2014-1-31,48,44,39,46,41,37,100,98,92,30.21,30.16,30.10,10,10,5,10,7,,0.16,7,,147